FYWE

Details ICAO FYWE (ERS)
Name EROS
Region Namibia
Timezone Africa/Windhoek (UTC+2.0)
Plans Departing 7
Arriving 8
Stats Elevation 5,575 ft / 1,699 m (AMSL)
Location -22.608791° 17.079259°
Runways 2
Magnetic Variation 12.141° W
Sunrise 2018-05-23 05:21:54 UTC / 2018-05-23 07:21:54 Local
Sunset 2018-05-23 16:17:49 UTC / 2018-05-23 18:17:49 Local
Advertisement - Login to hide

Runways

ID Width Length Bearing (true) Bearing (mag) Surface Threshold Offset Overrun Length
01 98 ft / 30 m 7,413 ft / 2,260 m 351.25° 3.39° Asphalt 0 ft / 0 m 70 ft / 21 m
09 98 ft / 30 m 3,252 ft / 991 m 75.47° 87.61° Gravel 0 ft / 0 m 0 ft / 0 m
19 98 ft / 30 m 7,413 ft / 2,260 m 171.25° 183.39° Asphalt 984 ft / 300 m 0 ft / 0 m
27 98 ft / 30 m 3,252 ft / 991 m 255.47° 267.61° Gravel 0 ft / 0 m 0 ft / 0 m

Map

Weather


0- 5 10 15 20 25 30 35+ Temperature / ° C

Clouds and Precipitation
Forecast for 2018-05-23 12:00 UTC. Updated 2 hours ago

Ground ~20,000 ft ~40,000 ft Winds

METAR

FYWE 231300Z 21005G18KT CAVOK 24/02 Q1027

TAF

Not found

Frequencies

Tower 118.70 MHz TWR
Warning: Do not use this data for real-world aviation or navigation. No guarantee of current accuracy is given.